Time;durP1;ratioP1;P1;durP2;ratioP2;P2;SDS_P1;SDS_P2;PMS_P1;PMS_P2;Temp;Humidity;BMP_temperature;BMP_pressure;BME280_temperature;BME280_humidity;BME280_pressure;Samples;Min_cycle;Max_cycle;Signal;HPM_P1;HPM_P2
2023/05/25 00:02:07;;;;;;;26.13;14.02;;;13.10;99.90;;;;;;5036552;28;20236;-60
2023/05/25 00:04:33;;;;;;;25.33;14.88;;;13.10;99.90;;;;;;5035201;28;20093;-58
2023/05/25 00:07:01;;;;;;;26.85;14.20;;;13.10;99.90;;;;;;5036192;28;20050;-56
2023/05/25 00:09:27;;;;;;;31.45;15.00;;;13.00;99.90;;;;;;5035992;28;20095;-59
2023/05/25 00:11:54;;;;;;;26.67;13.52;;;12.90;99.90;;;;;;5035977;28;20045;-58
2023/05/25 00:14:21;;;;;;;30.45;12.73;;;12.80;99.90;;;;;;5036285;28;20464;-59
2023/05/25 00:16:48;;;;;;;31.00;13.38;;;12.70;99.90;;;;;;5036106;28;20064;-59
2023/05/25 00:19:15;;;;;;;27.27;12.43;;;12.70;99.90;;;;;;5035868;28;20064;-59
2023/05/25 00:21:43;;;;;;;26.45;13.02;;;12.60;99.90;;;;;;5035926;28;20037;-59
2023/05/25 00:24:09;;;;;;;27.38;12.52;;;12.60;99.90;;;;;;5035452;28;20045;-59
2023/05/25 00:26:36;;;;;;;26.48;13.05;;;12.60;99.90;;;;;;5036008;28;20479;-59
2023/05/25 00:29:03;;;;;;;27.17;12.10;;;12.60;99.90;;;;;;5035550;28;20045;-58
2023/05/25 00:31:35;;;;;;;22.15;12.55;;;12.60;99.90;;;;;;5035606;28;20419;-59
2023/05/25 00:34:02;;;;;;;23.52;12.70;;;12.60;99.90;;;;;;5035427;28;20042;-59
2023/05/25 00:36:29;;;;;;;24.88;13.07;;;12.60;99.90;;;;;;5035542;28;20042;-58
2023/05/25 00:38:55;;;;;;;24.20;12.57;;;12.60;99.90;;;;;;5035689;28;20124;-59
2023/05/25 00:41:22;;;;;;;23.13;12.65;;;12.60;99.90;;;;;;5035739;28;20045;-58
2023/05/25 00:43:49;;;;;;;26.30;12.23;;;12.50;99.90;;;;;;5035200;28;20120;-59
2023/05/25 00:46:16;;;;;;;23.30;12.70;;;12.60;99.90;;;;;;5035381;28;20048;-58
2023/05/25 00:48:44;;;;;;;30.67;12.50;;;12.50;99.90;;;;;;5033797;28;20045;-56
2023/05/25 00:51:11;;;;;;;25.70;13.57;;;12.50;99.90;;;;;;5035240;28;20045;-59
2023/05/25 00:53:38;;;;;;;23.17;11.25;;;12.50;99.90;;;;;;5035063;28;20396;-58
2023/05/25 00:56:04;;;;;;;25.75;13.60;;;12.50;99.90;;;;;;5033881;28;20037;-58
2023/05/25 00:58:31;;;;;;;24.08;12.85;;;12.50;99.90;;;;;;5034163;28;20096;-60
2023/05/25 01:00:58;;;;;;;24.83;12.77;;;12.50;99.90;;;;;;5035274;28;20041;-57
2023/05/25 01:03:27;;;;;;;24.45;12.18;;;12.50;99.90;;;;;;5035130;28;20502;-58
2023/05/25 01:05:54;;;;;;;21.30;12.23;;;12.50;99.90;;;;;;5035095;28;20132;-57
2023/05/25 01:08:20;;;;;;;28.10;12.13;;;12.50;99.90;;;;;;5034607;28;20496;-57
2023/05/25 01:10:47;;;;;;;22.58;11.95;;;12.40;99.90;;;;;;5033341;28;20037;-59
2023/05/25 01:13:14;;;;;;;25.23;12.52;;;12.40;99.90;;;;;;5035139;28;20536;-57
2023/05/25 01:15:41;;;;;;;25.00;12.48;;;12.40;99.90;;;;;;5033222;28;20045;-57
2023/05/25 01:18:08;;;;;;;23.63;11.95;;;12.40;99.90;;;;;;5033222;28;20044;-59
2023/05/25 01:20:35;;;;;;;22.88;12.57;;;12.30;99.90;;;;;;5034765;28;20056;-58
2023/05/25 01:23:02;;;;;;;29.77;14.80;;;12.30;99.90;;;;;;5034919;28;20120;-58
2023/05/25 01:25:28;;;;;;;23.35;12.98;;;12.20;99.90;;;;;;5033025;28;20037;-59
2023/05/25 01:27:55;;;;;;;27.80;14.18;;;12.20;99.90;;;;;;5033544;28;20072;-59
2023/05/25 01:30:22;;;;;;;32.15;14.40;;;12.20;99.90;;;;;;5016559;28;20037;-58
2023/05/25 01:32:49;;;;;;;24.73;14.60;;;12.20;99.90;;;;;;5017227;28;20415;-58
2023/05/25 01:35:18;;;;;;;24.63;13.90;;;12.20;99.90;;;;;;5033051;28;20049;-58
2023/05/25 01:37:45;;;;;;;29.33;14.73;;;12.10;99.90;;;;;;5034774;28;20053;-58
2023/05/25 01:40:12;;;;;;;25.10;14.48;;;12.10;99.90;;;;;;5034216;28;20073;-60
2023/05/25 01:42:39;;;;;;;26.63;14.20;;;12.10;99.90;;;;;;5034543;28;20123;-58
2023/05/25 01:45:06;;;;;;;20.30;14.13;;;12.10;99.90;;;;;;5034669;28;20109;-59
2023/05/25 01:47:33;;;;;;;23.73;13.77;;;12.10;99.90;;;;;;5034480;28;20049;-58
2023/05/25 01:49:59;;;;;;;24.30;13.32;;;12.10;99.90;;;;;;5032960;28;20477;-58
2023/05/25 01:52:26;;;;;;;27.45;13.57;;;12.00;99.90;;;;;;5034267;28;20116;-58
2023/05/25 01:54:53;;;;;;;27.55;14.73;;;12.00;99.90;;;;;;5033736;28;20437;-59
2023/05/25 01:57:22;;;;;;;24.05;14.25;;;12.00;99.90;;;;;;5032970;28;20038;-58
2023/05/25 01:59:49;;;;;;;26.52;14.70;;;12.00;99.90;;;;;;5032412;28;20495;-57
2023/05/25 02:02:16;;;;;;;22.33;13.27;;;12.10;99.90;;;;;;5032981;28;20474;-60
2023/05/25 02:04:44;;;;;;;20.05;11.80;;;12.10;99.90;;;;;;5032670;28;20045;-57
2023/05/25 02:07:11;;;;;;;21.15;11.55;;;12.10;99.90;;;;;;5032760;28;20048;-59
2023/05/25 02:09:38;;;;;;;17.38;11.50;;;12.10;99.90;;;;;;5032373;28;20074;-59
2023/05/25 02:12:05;;;;;;;20.58;11.27;;;12.10;99.90;;;;;;5032677;28;20037;-59
2023/05/25 02:14:32;;;;;;;18.67;11.35;;;12.10;99.90;;;;;;5033618;28;20415;-58
2023/05/25 02:17:01;;;;;;;19.83;11.57;;;12.10;99.90;;;;;;5032114;28;20048;-60
2023/05/25 02:19:28;;;;;;;20.27;11.30;;;12.10;99.90;;;;;;5032078;28;20049;-58
2023/05/25 02:21:55;;;;;;;16.42;10.57;;;12.10;99.90;;;;;;5033679;28;20051;-57
2023/05/25 02:24:23;;;;;;;20.30;10.50;;;12.10;99.90;;;;;;5032220;28;20643;-59
2023/05/25 02:26:51;;;;;;;19.83;11.27;;;12.10;99.90;;;;;;5031826;28;20447;-59
2023/05/25 02:29:19;;;;;;;19.30;11.23;;;12.10;99.90;;;;;;5032548;28;20041;-59
2023/05/25 02:31:46;;;;;;;18.50;11.05;;;12.20;99.90;;;;;;5033240;28;20108;-59
2023/05/25 02:34:13;;;;;;;20.02;10.88;;;12.20;99.90;;;;;;5033832;28;20112;-58
2023/05/25 02:36:42;;;;;;;17.67;11.77;;;12.20;99.90;;;;;;5032298;28;20048;-59
2023/05/25 02:39:09;;;;;;;18.13;11.82;;;12.20;99.90;;;;;;5031964;28;20044;-59
2023/05/25 02:41:37;;;;;;;19.33;11.10;;;12.20;99.90;;;;;;5032064;28;20160;-59
2023/05/25 02:44:05;;;;;;;16.92;11.55;;;12.20;99.90;;;;;;5033902;28;20405;-58
2023/05/25 02:46:32;;;;;;;22.58;11.27;;;12.20;99.90;;;;;;5033377;28;20045;-59
2023/05/25 02:48:59;;;;;;;19.90;11.52;;;12.20;99.90;;;;;;5033715;28;20500;-60
2023/05/25 02:51:26;;;;;;;17.95;10.85;;;12.20;99.90;;;;;;5031949;28;20387;-59
2023/05/25 02:53:55;;;;;;;17.00;11.27;;;12.20;99.90;;;;;;5031999;28;20041;-59
2023/05/25 02:56:22;;;;;;;16.10;10.70;;;12.30;99.90;;;;;;5031688;28;20510;-58
2023/05/25 02:58:50;;;;;;;16.02;11.50;;;12.30;99.90;;;;;;5032303;28;20092;-58
2023/05/25 03:01:24;;;;;;;19.02;11.48;;;12.30;99.90;;;;;;5032207;28;20049;-58
2023/05/25 03:03:53;;;;;;;20.65;12.18;;;12.40;99.90;;;;;;5032446;28;20053;-59
2023/05/25 03:06:24;;;;;;;18.05;11.50;;;12.40;99.90;;;;;;5033560;28;20044;-58
2023/05/25 03:09:05;;;;;;;18.63;11.27;;;12.40;99.90;;;;;;5031814;28;20056;-58
2023/05/25 03:11:32;;;;;;;20.55;12.88;;;12.50;99.90;;;;;;5033037;28;20080;-59
2023/05/25 03:14:01;;;;;;;16.92;11.02;;;12.50;99.90;;;;;;5031366;28;20041;-58
2023/05/25 03:16:29;;;;;;;19.13;11.82;;;12.50;99.90;;;;;;5031626;28;20050;-58
2023/05/25 03:18:56;;;;;;;20.08;12.35;;;12.50;99.90;;;;;;5031697;28;20092;-59
2023/05/25 03:21:23;;;;;;;20.67;12.18;;;12.50;99.90;;;;;;5032049;28;20041;-58
2023/05/25 03:23:50;;;;;;;21.42;12.00;;;12.50;99.90;;;;;;5032621;28;20396;-59
2023/05/25 03:26:17;;;;;;;19.95;12.40;;;12.60;99.90;;;;;;5032787;28;20050;-57
2023/05/25 03:28:46;;;;;;;21.90;13.20;;;12.60;99.90;;;;;;5031916;28;20044;-57
2023/05/25 03:31:13;;;;;;;21.17;12.60;;;12.60;99.90;;;;;;5031458;28;20044;-59
2023/05/25 03:33:40;;;;;;;17.70;12.07;;;12.70;99.90;;;;;;5032979;28;20440;-59
2023/05/25 03:36:07;;;;;;;25.23;12.00;;;12.70;99.90;;;;;;5032872;28;20038;-59
2023/05/25 03:38:34;;;;;;;20.42;12.40;;;12.70;99.90;;;;;;5033431;28;20038;-59
2023/05/25 03:41:01;;;;;;;23.13;12.15;;;12.80;99.90;;;;;;5035270;28;20095;-59
2023/05/25 03:43:28;;;;;;;20.30;12.45;;;12.70;99.90;;;;;;5035559;28;20045;-58
2023/05/25 03:45:55;;;;;;;19.48;12.43;;;12.70;99.90;;;;;;5034876;28;20061;-58
2023/05/25 03:48:21;;;;;;;21.35;11.93;;;12.70;99.90;;;;;;5036420;28;20048;-59
2023/05/25 03:50:48;;;;;;;21.80;12.27;;;12.70;99.90;;;;;;5035200;28;20136;-59
2023/05/25 03:53:15;;;;;;;18.38;11.77;;;12.70;99.90;;;;;;5036787;28;20048;-57
2023/05/25 03:55:43;;;;;;;20.65;12.13;;;12.80;99.90;;;;;;5035230;28;20041;-58
2023/05/25 03:58:11;;;;;;;22.58;12.50;;;12.70;99.90;;;;;;5035256;28;20037;-59
2023/05/25 04:00:38;;;;;;;23.75;12.75;;;12.80;99.90;;;;;;5036005;28;20076;-59
2023/05/25 04:03:05;;;;;;;19.55;13.10;;;12.80;99.90;;;;;;5036201;28;20104;-58
2023/05/25 04:05:32;;;;;;;21.50;12.00;;;12.80;99.90;;;;;;5036330;28;20041;-60
2023/05/25 04:07:59;;;;;;;21.20;11.93;;;12.80;99.90;;;;;;5036441;28;20041;-58
2023/05/25 04:10:26;;;;;;;18.20;11.77;;;12.80;99.90;;;;;;5034578;28;20072;-59
2023/05/25 04:12:55;;;;;;;20.67;11.18;;;12.80;99.90;;;;;;5036300;28;20038;-58
2023/05/25 04:15:22;;;;;;;18.25;11.48;;;12.80;99.90;;;;;;5034681;28;20128;-59
2023/05/25 04:17:58;;;;;;;23.40;12.98;;;12.90;99.90;;;;;;5034965;28;20045;-59
2023/05/25 04:20:25;;;;;;;23.20;12.05;;;12.90;99.90;;;;;;5035407;28;20058;-59
2023/05/25 04:22:54;;;;;;;23.10;12.00;;;12.90;99.90;;;;;;5034322;28;20443;-59
2023/05/25 04:25:21;;;;;;;20.33;11.40;;;12.90;99.90;;;;;;5034224;28;20045;-59
2023/05/25 04:27:48;;;;;;;16.95;10.65;;;12.90;99.90;;;;;;5034881;28;20041;-60
2023/05/25 04:30:25;;;;;;;18.27;12.02;;;12.80;99.90;;;;;;5034465;28;20518;-57
2023/05/25 04:33:06;;;;;;;20.23;11.65;;;12.80;99.90;;;;;;5034198;28;20115;-59
2023/05/25 04:35:46;;;;;;;22.63;12.85;;;12.90;99.90;;;;;;5034810;28;20049;-60
2023/05/25 04:38:16;;;;;;;23.58;12.52;;;12.90;99.90;;;;;;5035313;28;20120;-57
2023/05/25 04:40:45;;;;;;;22.20;13.02;;;13.00;99.90;;;;;;5034160;28;20396;-60
2023/05/25 04:43:12;;;;;;;26.95;13.70;;;13.00;99.90;;;;;;5034048;28;20049;-59
2023/05/25 04:45:39;;;;;;;23.20;11.40;;;13.00;99.90;;;;;;5034521;28;20439;-60
2023/05/25 04:48:08;;;;;;;22.25;11.88;;;13.00;99.90;;;;;;5033864;28;20053;-60
2023/05/25 04:50:36;;;;;;;23.73;12.23;;;13.10;99.90;;;;;;5033653;28;20473;-59
2023/05/25 04:53:03;;;;;;;24.25;12.27;;;13.10;99.90;;;;;;5034069;28;20045;-59
2023/05/25 04:55:29;;;;;;;21.95;12.45;;;13.10;99.90;;;;;;5035543;28;20037;-57
2023/05/25 04:57:57;;;;;;;22.85;12.05;;;13.10;99.90;;;;;;5033626;28;20064;-57
2023/05/25 05:00:24;;;;;;;20.63;12.13;;;13.20;99.90;;;;;;5033848;28;20041;-58
2023/05/25 05:02:55;;;;;;;24.02;12.07;;;13.20;99.90;;;;;;5034056;28;20137;-58
2023/05/25 05:05:22;;;;;;;24.50;12.98;;;13.20;99.90;;;;;;5033738;28;20052;-60
2023/05/25 05:07:52;;;;;;;23.33;12.65;;;13.20;99.90;;;;;;5033787;28;20431;-58
2023/05/25 05:10:19;;;;;;;25.48;13.13;;;13.30;99.90;;;;;;5033195;28;20080;-59
2023/05/25 05:12:51;;;;;;;23.60;12.13;;;13.30;99.90;;;;;;5033013;28;20038;-60
2023/05/25 05:15:18;;;;;;;27.60;12.57;;;13.30;99.90;;;;;;5034098;28;20045;-60
2023/05/25 05:17:47;;;;;;;22.48;12.23;;;13.40;99.90;;;;;;5033454;28;20052;-59
2023/05/25 05:20:14;;;;;;;23.63;12.23;;;13.30;99.90;;;;;;5032930;28;20107;-60
2023/05/25 05:22:42;;;;;;;22.30;12.57;;;13.40;99.90;;;;;;5033659;28;20050;-57
2023/05/25 05:25:09;;;;;;;20.05;11.52;;;13.40;99.90;;;;;;5033781;28;20045;-59
2023/05/25 05:27:36;;;;;;;19.08;11.25;;;13.50;99.90;;;;;;5033692;28;20084;-58
2023/05/25 05:30:11;;;;;;;23.38;11.07;;;13.50;99.90;;;;;;5033258;28;20064;-59
2023/05/25 05:32:38;;;;;;;26.40;12.00;;;13.50;99.90;;;;;;5033333;28;20046;-58
2023/05/25 05:35:07;;;;;;;26.50;11.90;;;13.50;99.90;;;;;;5033017;28;20045;-59
2023/05/25 05:37:39;;;;;;;24.88;11.45;;;13.50;99.90;;;;;;5019478;28;20041;-60
2023/05/25 05:40:06;;;;;;;21.70;11.27;;;13.60;99.90;;;;;;5024433;28;20095;-60
2023/05/25 05:42:34;;;;;;;19.50;11.57;;;13.60;99.90;;;;;;5032740;28;20400;-59
2023/05/25 05:45:01;;;;;;;18.77;10.98;;;13.60;99.90;;;;;;5032506;28;20103;-59
2023/05/25 05:47:28;;;;;;;24.85;11.57;;;13.70;99.90;;;;;;5032528;28;20087;-58
2023/05/25 05:49:55;;;;;;;18.00;10.57;;;13.70;99.90;;;;;;5032397;28;20103;-59
2023/05/25 05:52:22;;;;;;;20.80;10.70;;;13.80;99.90;;;;;;5032458;28;20044;-59
2023/05/25 05:54:49;;;;;;;24.65;11.35;;;13.80;99.90;;;;;;5032216;28;20065;-58
2023/05/25 05:57:16;;;;;;;22.08;11.38;;;13.80;99.90;;;;;;5031998;28;20072;-60
2023/05/25 05:59:43;;;;;;;25.83;10.57;;;13.90;99.90;;;;;;5032581;28;20049;-59
2023/05/25 06:02:09;;;;;;;19.30;10.75;;;13.90;99.90;;;;;;5031728;28;20388;-59
2023/05/25 06:04:37;;;;;;;20.25;11.05;;;13.90;99.90;;;;;;5033621;28;20128;-58
2023/05/25 06:07:04;;;;;;;22.17;11.20;;;13.90;99.90;;;;;;5033449;28;20115;-57
2023/05/25 06:09:30;;;;;;;19.13;10.18;;;14.00;99.90;;;;;;5033602;28;20049;-60
2023/05/25 06:11:58;;;;;;;22.77;9.65;;;14.00;99.90;;;;;;5032301;28;20504;-58
2023/05/25 06:14:26;;;;;;;22.15;10.50;;;14.10;99.90;;;;;;5031725;28;20407;-56
2023/05/25 06:16:57;;;;;;;20.75;10.02;;;14.10;99.90;;;;;;5032171;28;20038;-59
2023/05/25 06:19:24;;;;;;;18.90;9.90;;;14.20;99.90;;;;;;5032443;28;20480;-58
2023/05/25 06:21:52;;;;;;;24.65;10.20;;;14.20;99.90;;;;;;5032295;28;20065;-59
2023/05/25 06:24:20;;;;;;;18.05;7.88;;;14.20;99.90;;;;;;5033615;28;20064;-57
2023/05/25 06:26:46;;;;;;;17.98;8.20;;;14.20;99.90;;;;;;5032319;28;20069;-57
2023/05/25 06:29:14;;;;;;;16.00;8.18;;;14.20;99.90;;;;;;5032131;28;20049;-57
2023/05/25 06:31:43;;;;;;;17.60;6.78;;;14.20;99.90;;;;;;5030715;28;20389;-56
2023/05/25 06:34:10;;;;;;;15.93;5.95;;;14.20;99.90;;;;;;5031099;28;20041;-59
2023/05/25 06:36:36;;;;;;;12.73;5.18;;;14.20;99.90;;;;;;5032201;28;20117;-59
2023/05/25 06:39:03;;;;;;;13.52;5.03;;;14.20;99.90;;;;;;5030583;28;20103;-59
2023/05/25 06:41:31;;;;;;;12.80;5.07;;;14.20;99.90;;;;;;5032104;28;20084;-57
2023/05/25 06:43:58;;;;;;;11.70;4.70;;;14.30;99.90;;;;;;5030850;28;20144;-58
2023/05/25 06:46:30;;;;;;;14.93;5.78;;;14.30;99.90;;;;;;5030796;28;20044;-60
2023/05/25 06:48:57;;;;;;;13.63;4.47;;;14.30;99.90;;;;;;5030733;28;20053;-58
2023/05/25 06:51:26;;;;;;;13.50;4.70;;;14.30;99.90;;;;;;5032986;28;20052;-56
2023/05/25 06:53:53;;;;;;;11.43;4.55;;;14.30;99.90;;;;;;5033463;28;20147;-59
2023/05/25 06:56:20;;;;;;;15.88;4.45;;;14.30;99.90;;;;;;5033323;28;20041;-57
2023/05/25 06:58:47;;;;;;;13.68;4.95;;;14.30;99.90;;;;;;5033287;28;20049;-58
2023/05/25 07:01:13;;;;;;;10.30;4.13;;;14.40;99.90;;;;;;5033597;28;20045;-59
2023/05/25 07:03:40;;;;;;;12.23;4.32;;;14.50;99.60;;;;;;5033214;28;20056;-59
2023/05/25 07:06:07;;;;;;;12.13;4.40;;;14.50;99.70;;;;;;5033392;28;20503;-58
2023/05/25 07:08:35;;;;;;;16.27;5.00;;;14.60;99.50;;;;;;5033577;28;20088;-58
2023/05/25 07:11:01;;;;;;;11.18;4.03;;;14.50;99.10;;;;;;5033487;28;20053;-59
2023/05/25 07:13:28;;;;;;;14.23;4.30;;;14.50;99.40;;;;;;5034816;28;20061;-59
2023/05/25 07:15:55;;;;;;;13.90;4.57;;;14.50;99.50;;;;;;5036029;28;20132;-58
2023/05/25 07:18:22;;;;;;;8.48;3.58;;;14.60;99.30;;;;;;5037205;28;20049;-59
2023/05/25 07:20:50;;;;;;;8.48;3.60;;;14.70;98.40;;;;;;5036846;28;20080;-59
2023/05/25 07:23:17;;;;;;;9.80;3.53;;;14.70;98.10;;;;;;5037016;28;20046;-59
2023/05/25 07:25:44;;;;;;;10.27;3.13;;;14.70;97.80;;;;;;5037110;28;20041;-58
2023/05/25 07:28:11;;;;;;;12.70;4.18;;;14.70;97.30;;;;;;5037228;28;20107;-58
2023/05/25 07:30:38;;;;;;;12.57;3.47;;;14.70;97.20;;;;;;5036626;28;20037;-59
2023/05/25 07:33:05;;;;;;;16.88;3.88;;;14.70;97.90;;;;;;5036905;28;20037;-59
2023/05/25 07:35:34;;;;;;;10.38;3.80;;;14.80;97.80;;;;;;5035577;28;20567;-59
2023/05/25 07:38:01;;;;;;;10.60;3.35;;;15.00;97.20;;;;;;5035503;28;20046;-59
2023/05/25 07:40:27;;;;;;;8.98;4.03;;;15.10;96.60;;;;;;5036991;28;20038;-59
2023/05/25 07:42:54;;;;;;;14.85;3.70;;;15.20;96.70;;;;;;5036595;28;20133;-59
2023/05/25 07:45:21;;;;;;;10.88;3.72;;;15.30;96.60;;;;;;5036916;28;20049;-55
2023/05/25 07:47:48;;;;;;;12.73;4.18;;;15.40;96.30;;;;;;5036529;28;20038;-60
2023/05/25 07:50:15;;;;;;;9.82;4.10;;;15.40;95.70;;;;;;5036538;28;20037;-59
2023/05/25 07:52:42;;;;;;;11.05;3.63;;;15.50;95.80;;;;;;5036371;28;20460;-59
2023/05/25 07:55:08;;;;;;;12.60;4.03;;;15.50;96.30;;;;;;5036791;28;20037;-59
2023/05/25 07:57:35;;;;;;;13.68;4.32;;;15.80;96.40;;;;;;5036592;28;20037;-58
2023/05/25 08:00:04;;;;;;;13.32;4.72;;;16.00;96.10;;;;;;5036106;28;20041;-59
2023/05/25 08:02:38;;;;;;;17.52;4.32;;;16.10;96.20;;;;;;5036302;28;20046;-60
2023/05/25 08:05:05;;;;;;;18.85;5.00;;;16.30;96.40;;;;;;5036157;28;20480;-60
2023/05/25 08:07:32;;;;;;;15.63;4.82;;;16.20;96.10;;;;;;5036190;28;20534;-55
2023/05/25 08:09:59;;;;;;;13.30;4.78;;;16.30;96.40;;;;;;5036444;28;20047;-58
2023/05/25 08:12:26;;;;;;;13.52;4.90;;;16.30;96.00;;;;;;5036073;28;20480;-57
2023/05/25 08:15:12;;;;;;;14.57;4.10;;;16.30;96.50;;;;;;5035836;28;20546;-58
2023/05/25 08:17:40;;;;;;;11.93;4.88;;;16.40;95.40;;;;;;5034568;28;20041;-59
2023/05/25 08:20:07;;;;;;;12.50;4.53;;;16.40;95.50;;;;;;5035641;28;20042;-59
2023/05/25 08:22:34;;;;;;;11.93;4.07;;;16.40;95.80;;;;;;5035872;28;20041;-58
2023/05/25 08:25:01;;;;;;;15.35;4.70;;;16.50;96.00;;;;;;5035540;28;20052;-58
2023/05/25 08:27:28;;;;;;;16.05;4.65;;;16.50;96.00;;;;;;5035692;28;20041;-59
2023/05/25 08:30:00;;;;;;;14.30;4.60;;;16.40;95.70;;;;;;5035836;28;20072;-58
2023/05/25 08:32:27;;;;;;;15.63;4.55;;;16.30;95.90;;;;;;5035678;28;20420;-59
2023/05/25 08:34:54;;;;;;;11.52;4.35;;;16.30;95.90;;;;;;5035749;28;20042;-57
2023/05/25 08:37:22;;;;;;;10.68;4.28;;;16.20;96.00;;;;;;5035665;28;20510;-58
2023/05/25 08:39:49;;;;;;;12.40;3.88;;;16.20;95.90;;;;;;5035547;28;20049;-58
2023/05/25 08:42:16;;;;;;;12.77;3.83;;;16.10;95.60;;;;;;5035583;28;20054;-59
2023/05/25 08:44:42;;;;;;;11.88;4.03;;;15.90;95.80;;;;;;5035355;28;20124;-58
2023/05/25 08:47:09;;;;;;;10.32;3.90;;;15.90;96.00;;;;;;5035405;28;20542;-59
2023/05/25 08:49:37;;;;;;;10.00;4.05;;;15.90;96.00;;;;;;5035802;28;20041;-59
2023/05/25 08:52:04;;;;;;;14.40;4.43;;;15.80;96.00;;;;;;5035663;28;20168;-58
2023/05/25 08:54:31;;;;;;;12.18;3.95;;;15.90;96.40;;;;;;5035083;28;20055;-58
2023/05/25 08:56:58;;;;;;;12.85;3.90;;;15.90;96.20;;;;;;5035079;28;20042;-57
2023/05/25 08:59:25;;;;;;;12.77;4.07;;;15.90;96.00;;;;;;5035554;28;20033;-59
2023/05/25 09:01:52;;;;;;;13.30;4.13;;;15.90;96.40;;;;;;5035446;28;20333;-59
2023/05/25 09:04:19;;;;;;;17.92;4.32;;;15.80;96.10;;;;;;5034973;28;20396;-58
2023/05/25 09:06:47;;;;;;;9.98;3.88;;;15.80;96.40;;;;;;5035005;28;20837;-58
2023/05/25 09:09:27;;;;;;;12.52;4.18;;;15.70;96.40;;;;;;5034644;28;20439;-58
2023/05/25 09:11:54;;;;;;;12.25;3.75;;;15.80;96.70;;;;;;5034880;28;20480;-57
2023/05/25 09:14:21;;;;;;;11.77;4.05;;;15.90;96.80;;;;;;5035154;28;20072;-58
2023/05/25 09:16:48;;;;;;;16.67;4.45;;;16.00;96.40;;;;;;5034443;28;20087;-59
2023/05/25 09:19:15;;;;;;;13.48;4.32;;;16.10;96.30;;;;;;5034560;28;20087;-56
2023/05/25 09:21:45;;;;;;;16.67;4.65;;;16.20;96.50;;;;;;5035067;28;20044;-58
2023/05/25 09:24:12;;;;;;;10.52;3.67;;;16.30;96.40;;;;;;5034515;28;20052;-59
2023/05/25 09:26:39;;;;;;;9.63;3.50;;;16.50;96.40;;;;;;5034506;28;20128;-59
2023/05/25 09:29:05;;;;;;;13.23;4.13;;;16.60;96.10;;;;;;5034977;28;20095;-59
2023/05/25 09:31:32;;;;;;;10.52;3.65;;;16.60;95.80;;;;;;5034578;28;20088;-58
2023/05/25 09:33:59;;;;;;;14.63;4.28;;;16.50;95.90;;;;;;5034358;28;20124;-56
2023/05/25 09:36:26;;;;;;;17.42;4.93;;;16.60;96.20;;;;;;5033747;28;20133;-58
2023/05/25 09:38:53;;;;;;;13.57;3.65;;;16.70;96.00;;;;;;5034517;28;20092;-59
2023/05/25 09:41:20;;;;;;;12.93;4.00;;;16.80;95.70;;;;;;5034618;28;20052;-59
2023/05/25 09:43:47;;;;;;;11.02;3.80;;;16.90;95.80;;;;;;5034782;28;20387;-58
2023/05/25 09:46:36;;;;;;;10.02;4.25;;;16.90;96.00;;;;;;5034280;28;20079;-55
2023/05/25 09:49:03;;;;;;;16.05;4.32;;;17.00;96.30;;;;;;5034012;28;20484;-58
2023/05/25 09:51:33;;;;;;;14.23;4.13;;;17.00;96.00;;;;;;5034431;28;20055;-58
2023/05/25 09:54:00;;;;;;;19.20;4.60;;;17.10;96.20;;;;;;5034548;28;20041;-58
2023/05/25 09:56:27;;;;;;;11.55;3.88;;;17.30;96.10;;;;;;5033782;28;20045;-59
2023/05/25 09:58:53;;;;;;;10.85;4.03;;;17.40;95.70;;;;;;5033849;28;20041;-59
2023/05/25 10:01:20;;;;;;;13.63;4.07;;;17.40;95.80;;;;;;5034109;28;20033;-58
2023/05/25 10:03:47;;;;;;;13.02;4.10;;;17.50;95.60;;;;;;5034307;28;20419;-56
2023/05/25 10:06:30;;;;;;;10.48;3.72;;;17.60;95.60;;;;;;5033942;28;20044;-59
2023/05/25 10:08:57;;;;;;;10.15;3.90;;;17.60;95.80;;;;;;5033800;28;20045;-58
2023/05/25 10:11:25;;;;;;;11.88;3.65;;;17.50;95.80;;;;;;5033797;28;20041;-59
2023/05/25 10:13:52;;;;;;;14.20;4.35;;;17.40;95.80;;;;;;5033624;28;20037;-59
2023/05/25 10:16:19;;;;;;;11.10;3.85;;;17.50;96.00;;;;;;5033599;28;20041;-59
2023/05/25 10:18:45;;;;;;;12.38;3.65;;;17.60;95.60;;;;;;5034293;28;20117;-55
2023/05/25 10:21:12;;;;;;;11.48;3.75;;;17.60;95.80;;;;;;5034121;28;20041;-58
2023/05/25 10:23:40;;;;;;;13.50;3.90;;;17.80;95.60;;;;;;5034174;28;20052;-58
2023/05/25 10:26:07;;;;;;;13.82;4.00;;;17.90;95.70;;;;;;5033713;28;20052;-59
2023/05/25 10:28:34;;;;;;;11.63;3.70;;;17.90;95.40;;;;;;5033935;28;20042;-59
2023/05/25 10:31:01;;;;;;;13.23;3.80;;;17.90;95.40;;;;;;5033766;28;20041;-56
2023/05/25 10:33:28;;;;;;;11.27;3.78;;;18.00;95.40;;;;;;5033450;28;20399;-58
2023/05/25 10:36:01;;;;;;;12.18;3.50;;;18.10;95.10;;;;;;5033740;28;20415;-59
2023/05/25 10:38:36;;;;;;;16.92;4.07;;;18.20;95.10;;;;;;5033969;28;20472;-59
2023/05/25 10:41:03;;;;;;;12.45;3.90;;;18.30;94.90;;;;;;5033526;28;20042;-57
2023/05/25 10:43:30;;;;;;;12.80;4.05;;;18.30;94.80;;;;;;5033809;28;20139;-59
2023/05/25 10:45:56;;;;;;;12.60;3.95;;;18.30;94.80;;;;;;5033189;28;20396;-58
2023/05/25 10:48:23;;;;;;;9.45;4.05;;;18.40;94.70;;;;;;5034517;28;20069;-60
2023/05/25 10:50:50;;;;;;;10.95;3.67;;;18.40;95.10;;;;;;5037991;28;20076;-59
2023/05/25 10:53:19;;;;;;;12.02;4.07;;;18.60;94.80;;;;;;5037837;28;20069;-60
2023/05/25 10:55:46;;;;;;;11.82;3.47;;;18.70;94.50;;;;;;5036037;28;20046;-60
2023/05/25 10:58:13;;;;;;;11.45;3.65;;;18.80;94.30;;;;;;5037661;28;20037;-59
2023/05/25 11:00:40;;;;;;;13.05;3.97;;;18.90;94.10;;;;;;5037683;28;20049;-59
2023/05/25 11:03:07;;;;;;;14.18;3.97;;;18.90;94.30;;;;;;5037810;28;20172;-60
2023/05/25 11:05:34;;;;;;;13.98;3.80;;;18.90;94.40;;;;;;5037458;28;20380;-59
2023/05/25 11:08:00;;;;;;;14.02;4.10;;;18.90;94.40;;;;;;5037280;28;20454;-59
2023/05/25 11:10:27;;;;;;;19.10;4.10;;;18.70;94.40;;;;;;5037442;28;20041;-60
2023/05/25 11:12:54;;;;;;;11.43;4.00;;;18.60;94.30;;;;;;5036804;28;20041;-59
2023/05/25 11:15:21;;;;;;;11.68;3.53;;;18.70;94.60;;;;;;5036989;28;20046;-59
2023/05/25 11:17:47;;;;;;;34.15;6.65;;;18.90;94.40;;;;;;5035898;28;20419;-59
2023/05/25 11:20:14;;;;;;;17.40;4.80;;;19.00;94.60;;;;;;5036921;28;20097;-59
2023/05/25 11:22:41;;;;;;;11.05;3.67;;;19.20;94.40;;;;;;5037154;28;20419;-59
2023/05/25 11:25:08;;;;;;;11.07;3.88;;;19.20;94.10;;;;;;5037105;28;20041;-59
2023/05/25 11:27:35;;;;;;;15.02;3.90;;;19.30;94.10;;;;;;5037075;28;20255;-60
2023/05/25 11:30:01;;;;;;;13.48;3.92;;;19.30;94.00;;;;;;5036732;28;20099;-58
2023/05/25 11:32:28;;;;;;;14.73;3.97;;;19.30;93.90;;;;;;5037167;28;20042;-59
2023/05/25 11:34:56;;;;;;;17.75;4.05;;;19.40;93.60;;;;;;5036719;28;20046;-58
2023/05/25 11:37:27;;;;;;;10.82;3.63;;;19.50;93.40;;;;;;5036610;28;20064;-59
2023/05/25 11:39:54;;;;;;;11.98;3.45;;;19.50;93.40;;;;;;5036968;28;20047;-59
2023/05/25 11:42:21;;;;;;;8.23;3.08;;;19.40;93.50;;;;;;5036603;28;20041;-59
2023/05/25 11:44:48;;;;;;;13.25;4.40;;;19.40;93.40;;;;;;5037009;28;20076;-59
2023/05/25 11:47:18;;;;;;;11.48;3.10;;;19.50;93.10;;;;;;5036238;28;20060;-60
2023/05/25 11:49:45;;;;;;;10.50;3.42;;;19.70;93.00;;;;;;5036268;28;20049;-59
2023/05/25 11:52:12;;;;;;;12.93;3.72;;;19.70;92.40;;;;;;5036296;28;20125;-59
2023/05/25 11:54:42;;;;;;;10.15;4.10;;;19.70;92.70;;;;;;5036617;28;20060;-61
2023/05/25 11:57:08;;;;;;;13.52;3.67;;;19.60;92.80;;;;;;5036327;28;20041;-60
2023/05/25 11:59:38;;;;;;;20.38;5.15;;;19.60;93.10;;;;;;5035279;28;20041;-59
2023/05/25 12:02:05;;;;;;;12.00;4.20;;;19.70;92.80;;;;;;5036740;28;20037;-59
2023/05/25 12:04:31;;;;;;;12.82;3.70;;;19.50;92.70;;;;;;5036079;28;20045;-60
2023/05/25 12:06:58;;;;;;;8.60;3.70;;;19.50;93.10;;;;;;5036089;28;20041;-59
2023/05/25 12:09:26;;;;;;;13.80;4.18;;;19.30;93.30;;;;;;5035812;28;20575;-58
2023/05/25 12:11:52;;;;;;;16.40;4.60;;;19.20;94.20;;;;;;5036577;28;20041;-60
2023/05/25 12:14:19;;;;;;;12.73;3.85;;;19.20;94.30;;;;;;5035704;28;20069;-60
2023/05/25 12:16:46;;;;;;;14.98;4.22;;;19.20;94.70;;;;;;5036294;28;20033;-60
2023/05/25 12:19:13;;;;;;;12.90;4.80;;;19.30;94.60;;;;;;5034686;28;20042;-60
2023/05/25 12:21:40;;;;;;;11.27;4.10;;;19.30;94.70;;;;;;5036313;28;20042;-60
2023/05/25 12:24:07;;;;;;;15.48;4.60;;;19.40;94.90;;;;;;5035787;28;20053;-59
2023/05/25 12:26:33;;;;;;;14.93;4.47;;;19.50;94.80;;;;;;5036128;28;20042;-59
2023/05/25 12:29:00;;;;;;;12.07;4.25;;;19.60;94.30;;;;;;5035569;28;20091;-60
2023/05/25 12:31:27;;;;;;;14.77;4.90;;;19.70;94.40;;;;;;5035774;28;20507;-60
2023/05/25 12:33:54;;;;;;;12.77;4.05;;;19.80;94.40;;;;;;5035470;28;20045;-60
2023/05/25 12:36:21;;;;;;;12.80;4.65;;;20.00;94.30;;;;;;5035860;28;20044;-57